Exeter, New Hampshire
Current Conditions -  °F | °C
As of 5:58 PM on Monday 22 Dec 2014 (Local Time) from KPSM Reporting Station
Drizzle Drizzle  
Wind Chill: 32°   Ceiling: 900
Heat Index: 36°   Visibility: 6mi
Dew Point: 34°   Wind: 6mph
Humidity: 90%   Direction: 360°N
Pressure: 30.34"   Gusts: NA
Location:  42.98°N, 70.95°W
Report Text: KPSM 222258Z 36005KT 6SM -DZ BR BKN009 OVC015 02/01 A3034 RMK AO2A RAB2159E2254 SLP279 P0001 T00240009
Loading
Personal Weather Stations






























Interactive Weather Map New forecast layout! Learn more

10-Day Weather Forecast

Advertisements
Track Severe Weather on mobile